Terminal Aerodrome Forecast
Issued by NWS

Home | Current Version | Previous Version | Text Only | Print | Product List | Glossary On
Versions: 1 2 3 4 5 6 7 8 9 10 11 12 13 14 15 16 17 18 19
000
FTUS45 KFGZ 221900 AAA
TAFPRC
TAF AMD
KPRC 221915Z 2219/2318 12007KT P6SM SCT040 BKN070
      TEMPO 2219/2221 -SHRA BKN040
     FM222100 22009KT P6SM SCT040 BKN070
      TEMPO 2221/2223 -SHRA BKN040
     FM230200 20005KT P6SM FEW040=

USA.gov is the U.S. government's official web portal to all federal, state and local government web resources and services.